Cebollita Spring, Valles Caldera, New Mexico Weather observations

Data are for 10 minute period ending at time listed.
 Day   Time   Solar   Ave.   Ave.  Ave.  Vector  Max.   Baro.   Total    
  of    of     Rad.   Air    Rel.  Wind   Wind   Wind  Press.  Precip.   
Year   Day            Temp.  Hum.  Speed  Dir.   Gust                    
2014   (MST)  Kw/m2    F      %     mph   deg.    mph    mb.     in.     
-------------------------------------------------------------------------
 112    3:30   0.00   42.9    71    2.8   100     7.8   99999.0    0.00 
 112    3:40   0.00   42.9    71    2.4   110     7.2   99999.0    0.00 
 112    3:50   0.00   44.0    69    3.8   103     9.6   99999.0    0.00 
 112    4:00   0.00   45.1    66    3.5    95     7.8   99999.0    0.00 
 112    4:10   0.00   44.8    67    4.1    91     9.6   99999.0    0.00 
 112    4:20   0.00   44.0    69    2.4    84     5.1   99999.0    0.00 
 112    4:30   0.00   42.1    73    1.9    70     3.6   99999.0    0.00 
 112    4:40   0.00   40.8    76    1.1    72     3.6   99999.0    0.00 
 112    4:50   0.00   40.3    78    1.0    30     2.4   99999.0    0.00 
 112    5:00   0.00   38.8    80    1.4   331     3.0   99999.0    0.00 
 112    5:10   0.00   36.8    84    1.0    48     2.4   99999.0    0.00 
 112    5:20   0.00   35.4    86    1.1    64     3.0   99999.0    0.00 
 112    5:30   0.00   34.1    89    2.1    74     3.6   99999.0    0.00 
 112    5:40   0.00   33.6    90    0.4    64     2.4   99999.0    0.00 
 112    5:50   0.00   33.5    91    0.3    86     1.8   99999.0    0.00 
 112    6:00   0.00   33.9    91    0.0     0     0.0   99999.0    0.00 
 112    6:10   0.00   34.7    90    0.3    65     1.8   99999.0    0.00 
 112    6:20   0.00   36.0    89    0.2    59     1.8   99999.0    0.00 
 112    6:30   0.00   38.0    90    1.3    77     4.8   99999.0    0.00 
 112    6:40   0.00   40.8    84    0.9    85     4.2   99999.0    0.00 
 112    6:50   0.09   42.2    82    1.6    62     3.6   99999.0    0.00 
 112    7:00   0.22   44.4    77    1.7   120     4.2   99999.0    0.00 
 112    7:10   0.02   48.1    67    2.6   125     6.0   99999.0    0.00 
 112    7:20   0.37   51.7    57    3.6   136     7.8   99999.0    0.00 
 112    7:30   0.53   53.1    53    4.6   140     9.0   99999.0    0.00 
 112    7:40   0.38   53.0    53    4.1   144     7.2   99999.0    0.00 
 112    7:50   0.26   52.9    53    3.2   154     6.6   99999.0    0.00 
 112    8:00   0.02   51.9    55    3.5   134     7.2   99999.0    0.00 
 112    8:10   0.03   52.2    55    3.5   134     6.6   99999.0    0.00 
 112    8:20   0.07   53.1    52    4.3   152    13.7   99999.0    0.00 
 112    8:30   0.50   55.0    47    6.1   170    14.3   99999.0    0.00 
 112    8:40   0.72   55.7    46    5.9   158    13.1   99999.0    0.00 
 112    8:50   0.64   56.6    44    5.7   147    14.9   99999.0    0.00 
 112    9:00   0.00   57.3    42    6.4   147    14.3   99999.0    0.00 
 112    9:10   0.00   56.8    42    6.8   176    11.9   99999.0    0.00 
 112    9:20   0.00   57.6    42    6.1   173    13.7   99999.0    0.00 
 112    9:30   0.15   58.2    42    6.0   154    11.3   99999.0    0.00 
 112    9:40   0.90   58.2    40    7.5   153    12.5   99999.0    0.00 
 112    9:50   0.73   59.0    39    6.2   143    13.1   99999.0    0.00 
 112   10:00   0.06   59.6    38    7.0   145    14.9   99999.0    0.00 
 112   10:10   0.17   59.8    39    7.6   152    16.1   99999.0    0.00 
 112   10:20   0.94   61.1    37    5.6   158    14.9   99999.0    0.00 
 112   10:30   0.72   61.4    35    6.8   163    15.5   99999.0    0.00 
 112   10:40   0.09   62.0    34    6.2   154    17.3   99999.0    0.00 
 112   10:50   0.02   62.7    32    5.7   180    13.1   99999.0    0.00 
 112   11:00   0.00   62.7    32    7.3   177    13.7   99999.0    0.00 
 112   11:10   0.00   62.2    32    8.0   172    16.1   99999.0    0.00 
 112   11:20   0.00   62.5    31    8.4   182    17.3   99999.0    0.00 
 112   11:30   0.00   62.7    31    6.9   165    13.1   99999.0    0.00 
 112   11:40   0.23   64.5    29    6.9   148    16.1   99999.0    0.00 
 112   11:50   1.11   64.1    28    8.5   184    21.5   99999.0    0.00 
 112   12:00   1.08   65.1    26    8.6   170    17.9   99999.0    0.00 
 112   12:10   0.82   64.1    27    6.2   194    16.1   99999.0    0.00 
 112   12:20   0.84   62.6    28    8.6   183    17.9   99999.0    0.00 
 112   12:30   0.86   64.1    25    7.9   174    18.5   99999.0    0.00 
 112   12:40   0.64   63.3    24    8.8   161    20.3   99999.0    0.00 
 112   12:50   1.05   65.4    22    7.6   185    19.1   99999.0    0.00 
 112   13:00   1.02   65.6    21    8.5   174    17.9   99999.0    0.00 
 112   13:10   0.52   64.6    21    8.0   167    16.1   99999.0    0.00 
 112   13:20   0.74   63.7    22    7.5   194    17.3   99999.0    0.00 
 112   13:30   0.81   65.9    21    8.1   177    17.9   99999.0    0.00 
 112   13:40   0.84   66.2    21    7.7   195    16.1   99999.0    0.00 
 112   13:50   0.65   65.4    22    7.5   203    18.5   99999.0    0.00 
 112   14:00   0.50   64.5    22    7.5   178    16.1   99999.0    0.00 
 112   14:10   0.65   65.7    22    6.7   176    16.1   99999.0    0.00 
 112   14:20   1.02   67.0    21    8.6   190    19.1   99999.0    0.00 
 112   14:30   0.79   66.6    22    6.6   184    19.7   99999.0    0.00 
 112   14:40   0.44   65.8    22    6.5   183    15.5   99999.0    0.00 
 112   14:50   0.39   63.6    24    9.0   161    20.3   99999.0    0.01 
 112   15:00   0.23   62.6    24    5.5   168    12.5   99999.0    0.00 
 112   15:10   0.28   62.7    23    8.5   183    18.5   99999.0    0.00 
 112   15:20   0.22   62.4    22    7.2   153    17.3   99999.0    0.00 
 112   15:30   0.19   61.4    24    4.6   178    11.3   99999.0    0.00 
 112   15:40   0.24   62.4    22    7.9   175    17.9   99999.0    0.00 
 112   15:50   0.58   64.5    21    8.5   181    17.3   99999.0    0.00 
 112   16:00   0.42   64.6    21    8.4   169    20.3   99999.0    0.00 
 112   16:10   0.31   64.0    22    8.1   175    17.9   99999.0    0.00 
 112   16:20   0.20   62.6    24    5.7   176    12.5   99999.0    0.00 
 112   16:30   0.23   61.8    24    9.3   173    20.3   99999.0    0.00 
 112   16:40   0.22   61.8    24    7.5   163    15.5   99999.0    0.00 
 112   16:50   0.02   61.3    24    6.5   172    12.5   99999.0    0.00 
 112   17:00   0.00   61.1    24    5.9   181    13.1   99999.0    0.00 
 112   17:10   0.00   61.0    25    5.9   170    14.3   99999.0    0.00 
 112   17:20   0.00   61.0    25    6.6   178    14.9   99999.0    0.00 
 112   17:30   0.00   60.8    26    5.4   179    13.7   99999.0    0.00 
 112   17:40   0.00   60.4    27    6.7   170    19.1   99999.0    0.00 
 112   17:50   0.04   60.0    28    6.6   158    12.5   99999.0    0.00 
 112   18:00   0.02   59.5    28    5.4   180    12.5   99999.0    0.00 
 112   18:10   0.01   59.1    29    3.8   177     8.4   99999.0    0.00 
 112   18:20   0.00   58.9    28    5.2   181    10.8   99999.0    0.00 
 112   18:30   0.00   58.8    28    4.1   171     9.6   99999.0    0.00 
 112   18:40   0.00   58.4    29    4.3   177     9.0   99999.0    0.00 
 112   18:50   0.00   58.3    29    4.1   184    13.1   99999.0    0.00 
 112   19:00   0.00   58.3    28    4.9   196     9.6   99999.0    0.00 
 112   19:10   0.00   58.2    29    3.9   160     9.6   99999.0    0.00 
 112   19:20   0.00   58.1    29    5.4   158    14.3   99999.0    0.00 
 112   19:30   0.00   58.4    28    4.8   196    13.1   99999.0    0.00 
 112   19:40   0.00   58.0    29    2.6   186     7.2   99999.0    0.00 
 112   19:50   0.00   57.5    29    4.1   201    10.2   99999.0    0.00 
 112   20:00   0.00   57.8    27    4.8   206    10.2   99999.0    0.00 
 112   20:10   0.00   57.7    28    6.8   182    21.5   99999.0    0.00 
 112   20:20   0.00   57.0    30    5.2   171    12.5   99999.0    0.00 
 112   20:30   0.00   56.8    30    3.9   185     7.8   99999.0    0.00 
 112   20:40   0.00   56.5    31    6.5   161    21.5   99999.0    0.00 
 112   20:50   0.00   56.8    30    6.9   164    16.7   99999.0    0.00 
 112   21:00   0.00   57.1    29    6.2   199    11.3   99999.0    0.00 
 112   21:10   0.00   56.8    30    3.3   180     7.8   99999.0    0.00 
 112   21:20   0.00   56.2    30    3.9   170     8.4   99999.0    0.00 
 112   21:30   0.00   56.9    28    6.0   180    11.9   99999.0    0.00 
 112   21:40   0.00   57.0    28    3.9   182     8.4   99999.0    0.00 
 112   21:50   0.00   56.5    29    2.8   144     6.0   99999.0    0.00 
 112   22:00   0.00   55.8    30    2.4   154     6.3   99999.0    0.00 
 112   22:10   0.00   55.3    31    3.2   177     5.4   99999.0    0.00 
 112   22:20   0.00   55.2    31    4.0   162    10.8   99999.0    0.00 
 112   22:30   0.00   55.8    29    3.5   170     8.4   99999.0    0.00 
 112   22:40   0.00   55.9    28    4.2   180    10.8   99999.0    0.00 
 112   22:50   0.00   56.3    27    3.9   196    11.7   99999.0    0.00 
 112   23:00   0.00   56.3    26    3.7   197     8.4   99999.0    0.00 
 112   23:10   0.00   56.3    25    5.3   215    11.9   99999.0    0.00 
 112   23:20   0.00   55.7    26    5.0   238    10.2   99999.0    0.00 
 112   23:30   0.00   55.3    27    7.8   247    16.7   99999.0    0.00 
 112   23:40   0.00   55.0    28    6.2   252    13.1   99999.0    0.00 
 112   23:50   0.00   53.8    29    5.0   262    10.8   99999.0    0.00 
 113    0:00   0.00   53.1    30    3.9   258     7.2   99999.0    0.00 
 113    0:10   0.00   52.8    31    5.8   251    10.8   99999.0    0.00 
 113    0:20   0.00   52.4    32    5.6   262    10.2   99999.0    0.00 
 113    0:30   0.00   52.3    32    6.3   262    10.2   99999.0    0.00 
 113    0:40   0.00   52.0    33    5.4   270    13.1   99999.0    0.00 
 113    0:50   0.00   51.6    33    4.4   269     9.6   99999.0    0.00 
 113    1:00   0.00   51.1    34    4.5   267    10.2   99999.0    0.00 
 113    1:10   0.00   50.8    34    3.8   272     6.6   99999.0    0.00 
 113    1:20   0.00   50.8    34    4.3   276    10.2   99999.0    0.00 
 113    1:30   0.00   50.7    34    4.4   277     8.4   99999.0    0.00 
 113    1:40   0.00   50.2    36    4.8   274     9.6   99999.0    0.00 
 113    1:50   0.00   49.6    37    4.3   278     9.0   99999.0    0.00 
 113    2:00   0.00   49.5    37    5.2   273    10.2   99999.0    0.00 
 113    2:10   0.00   50.3    35    6.9   265    13.7   99999.0    0.00 
 113    2:20   0.00   50.7    34    7.1   265    14.9   99999.0    0.00 
 113    2:30   0.00   50.6    34    5.9   255    14.9   99999.0    0.00 
 113    2:40   0.00   50.3    34    4.0   253    11.3   99999.0    0.00 
 113    2:50   0.00   50.1    34    3.9   239    10.8   99999.0    0.00 
 113    3:00   0.00   49.4    35    2.6   247     9.6   99999.0    0.00 
 113    3:10   0.00   49.0    35    3.1   214     9.0   99999.0    0.00 
 113    3:20   0.00   48.7    35    2.6   200     7.8   99999.0    0.00 

Return to Cebollita Spring, Valles Caldera graphs page.


Western Regional Climate Center,wrcc@dri.edu